sensor_id;sensor_type;location;lat;lon;timestamp;pressure;altitude;pressure_sealevel;temperature;humidity
25350;BME280;13302;48.796;11.978;2022-12-29T00:01:20;96618.78;;;8.12;31.48
25350;BME280;13302;48.796;11.978;2022-12-29T00:04:11;96619.97;;;8.11;31.63
25350;BME280;13302;48.796;11.978;2022-12-29T00:07:01;96612.97;;;8.14;31.73
25350;BME280;13302;48.796;11.978;2022-12-29T00:09:51;96603.56;;;8.15;31.59
25350;BME280;13302;48.796;11.978;2022-12-29T00:12:38;96602.88;;;8.18;31.85
25350;BME280;13302;48.796;11.978;2022-12-29T00:15:43;96608.81;;;8.20;31.72
25350;BME280;13302;48.796;11.978;2022-12-29T00:18:30;96600.56;;;8.20;31.60
25350;BME280;13302;48.796;11.978;2022-12-29T00:21:19;96601.38;;;8.20;31.77
25350;BME280;13302;48.796;11.978;2022-12-29T00:24:25;96595.88;;;8.20;31.64
25350;BME280;13302;48.796;11.978;2022-12-29T00:27:12;96599.09;;;8.22;31.96
25350;BME280;13302;48.796;11.978;2022-12-29T00:30:22;96595.53;;;8.22;31.85
25350;BME280;13302;48.796;11.978;2022-12-29T00:33:30;96597.16;;;8.23;32.00
25350;BME280;13302;48.796;11.978;2022-12-29T00:36:39;96598.28;;;8.22;31.91
25350;BME280;13302;48.796;11.978;2022-12-29T00:39:27;96589.22;;;8.21;31.67
25350;BME280;13302;48.796;11.978;2022-12-29T00:42:33;96593.59;;;8.22;31.73
25350;BME280;13302;48.796;11.978;2022-12-29T00:45:40;96598.28;;;8.22;31.69
25350;BME280;13302;48.796;11.978;2022-12-29T00:48:28;96597.59;;;8.25;31.72
25350;BME280;13302;48.796;11.978;2022-12-29T00:51:33;96600.03;;;8.26;31.57
25350;BME280;13302;48.796;11.978;2022-12-29T00:54:21;96593.38;;;8.27;31.71
25350;BME280;13302;48.796;11.978;2022-12-29T00:57:09;96596.94;;;8.28;31.35
25350;BME280;13302;48.796;11.978;2022-12-29T00:59:56;96594.97;;;8.28;31.51
25350;BME280;13302;48.796;11.978;2022-12-29T01:02:43;96593.00;;;8.29;31.51
25350;BME280;13302;48.796;11.978;2022-12-29T01:05:30;96599.31;;;8.29;31.55
25350;BME280;13302;48.796;11.978;2022-12-29T01:08:17;96596.94;;;8.28;31.55
25350;BME280;13302;48.796;11.978;2022-12-29T01:11:14;96604.72;;;8.26;31.69
25350;BME280;13302;48.796;11.978;2022-12-29T01:14:03;96591.28;;;8.24;31.55
25350;BME280;13302;48.796;11.978;2022-12-29T01:16:50;96605.75;;;8.21;31.29
25350;BME280;13302;48.796;11.978;2022-12-29T01:19:38;96595.41;;;8.18;31.29
25350;BME280;13302;48.796;11.978;2022-12-29T01:22:25;96610.53;;;8.12;31.22
25350;BME280;13302;48.796;11.978;2022-12-29T01:25:14;96600.09;;;8.06;31.51
25350;BME280;13302;48.796;11.978;2022-12-29T01:28:01;96599.50;;;8.00;31.38
25350;BME280;13302;48.796;11.978;2022-12-29T01:30:48;96603.28;;;7.96;31.53
25350;BME280;13302;48.796;11.978;2022-12-29T01:33:35;96604.31;;;7.91;31.33
25350;BME280;13302;48.796;11.978;2022-12-29T01:36:23;96591.22;;;7.88;31.37
25350;BME280;13302;48.796;11.978;2022-12-29T01:39:10;96589.16;;;7.85;31.48
25350;BME280;13302;48.796;11.978;2022-12-29T01:41:57;96590.97;;;7.81;31.55
25350;BME280;13302;48.796;11.978;2022-12-29T01:44:52;96583.72;;;7.76;31.59
25350;BME280;13302;48.796;11.978;2022-12-29T01:47:50;96591.06;;;7.72;31.51
25350;BME280;13302;48.796;11.978;2022-12-29T01:50:42;96579.59;;;7.70;31.53
25350;BME280;13302;48.796;11.978;2022-12-29T01:53:31;96578.31;;;7.68;31.48
25350;BME280;13302;48.796;11.978;2022-12-29T01:56:21;96572.69;;;7.64;31.55
25350;BME280;13302;48.796;11.978;2022-12-29T01:59:11;96579.69;;;7.62;31.49
25350;BME280;13302;48.796;11.978;2022-12-29T02:02:01;96574.84;;;7.59;31.36
25350;BME280;13302;48.796;11.978;2022-12-29T02:04:48;96560.63;;;7.57;31.31
25350;BME280;13302;48.796;11.978;2022-12-29T02:07:37;96560.97;;;7.55;31.38
25350;BME280;13302;48.796;11.978;2022-12-29T02:10:26;96557.28;;;7.51;31.65
25350;BME280;13302;48.796;11.978;2022-12-29T02:13:16;96556.03;;;7.49;31.30
25350;BME280;13302;48.796;11.978;2022-12-29T02:16:14;96561.03;;;7.47;31.38
25350;BME280;13302;48.796;11.978;2022-12-29T02:22:28;96560.09;;;7.43;31.35
25350;BME280;13302;48.796;11.978;2022-12-29T02:29:00;96554.63;;;7.43;31.73
25350;BME280;13302;48.796;11.978;2022-12-29T02:32:02;96545.09;;;7.40;31.74
25350;BME280;13302;48.796;11.978;2022-12-29T02:35:03;96543.97;;;7.41;31.76
25350;BME280;13302;48.796;11.978;2022-12-29T02:38:33;96540.41;;;7.41;31.90
25350;BME280;13302;48.796;11.978;2022-12-29T02:41:33;96535.03;;;7.44;31.64
25350;BME280;13302;48.796;11.978;2022-12-29T02:44:31;96543.72;;;7.46;31.88
25350;BME280;13302;48.796;11.978;2022-12-29T02:50:40;96534.16;;;7.52;31.85
25350;BME280;13302;48.796;11.978;2022-12-29T02:53:33;96532.66;;;7.55;31.57
25350;BME280;13302;48.796;11.978;2022-12-29T02:56:39;96542.50;;;7.56;31.71
25350;BME280;13302;48.796;11.978;2022-12-29T02:59:26;96540.25;;;7.58;31.65
25350;BME280;13302;48.796;11.978;2022-12-29T03:11:50;96528.69;;;7.64;31.61
25350;BME280;13302;48.796;11.978;2022-12-29T03:15:03;96507.47;;;7.65;31.66
25350;BME280;13302;48.796;11.978;2022-12-29T03:18:17;96491.78;;;7.65;31.79
25350;BME280;13302;48.796;11.978;2022-12-29T03:21:17;96496.78;;;7.63;32.14
25350;BME280;13302;48.796;11.978;2022-12-29T03:24:06;96492.59;;;7.66;31.94
25350;BME280;13302;48.796;11.978;2022-12-29T03:26:59;96489.84;;;7.66;32.03
25350;BME280;13302;48.796;11.978;2022-12-29T03:29:56;96493.03;;;7.68;32.19
25350;BME280;13302;48.796;11.978;2022-12-29T03:32:47;96493.38;;;7.66;32.33
25350;BME280;13302;48.796;11.978;2022-12-29T03:35:38;96483.97;;;7.67;32.52
25350;BME280;13302;48.796;11.978;2022-12-29T03:38:35;96476.88;;;7.66;32.44
25350;BME280;13302;48.796;11.978;2022-12-29T03:41:28;96485.00;;;7.63;32.15
25350;BME280;13302;48.796;11.978;2022-12-29T03:44:18;96478.34;;;7.64;32.34
25350;BME280;13302;48.796;11.978;2022-12-29T03:47:06;96479.97;;;7.65;32.67
25350;BME280;13302;48.796;11.978;2022-12-29T03:49:54;96477.22;;;7.65;32.41
25350;BME280;13302;48.796;11.978;2022-12-29T03:52:41;96479.28;;;7.68;32.68
25350;BME280;13302;48.796;11.978;2022-12-29T03:55:28;96473.88;;;7.71;32.71
25350;BME280;13302;48.796;11.978;2022-12-29T03:58:16;96466.91;;;7.74;32.74
25350;BME280;13302;48.796;11.978;2022-12-29T04:01:30;96465.75;;;7.75;32.49
25350;BME280;13302;48.796;11.978;2022-12-29T04:04:17;96459.69;;;7.81;32.56
25350;BME280;13302;48.796;11.978;2022-12-29T04:07:05;96469.19;;;7.84;32.53
25350;BME280;13302;48.796;11.978;2022-12-29T04:09:52;96464.16;;;7.86;32.48
25350;BME280;13302;48.796;11.978;2022-12-29T04:12:43;96461.88;;;7.88;32.40
25350;BME280;13302;48.796;11.978;2022-12-29T04:15:30;96461.97;;;7.92;32.46
25350;BME280;13302;48.796;11.978;2022-12-29T04:18:18;96463.25;;;7.94;32.29
25350;BME280;13302;48.796;11.978;2022-12-29T04:21:07;96472.06;;;8.00;32.35
25350;BME280;13302;48.796;11.978;2022-12-29T04:23:57;96472.66;;;8.05;32.39
25350;BME280;13302;48.796;11.978;2022-12-29T04:26:44;96464.19;;;8.10;32.15
25350;BME280;13302;48.796;11.978;2022-12-29T04:29:49;96479.31;;;8.16;31.99
25350;BME280;13302;48.796;11.978;2022-12-29T04:32:54;96473.56;;;8.21;32.10
25350;BME280;13302;48.796;11.978;2022-12-29T04:35:42;96475.28;;;8.26;32.17
25350;BME280;13302;48.796;11.978;2022-12-29T04:38:30;96474.25;;;8.30;32.19
25350;BME280;13302;48.796;11.978;2022-12-29T04:41:19;96471.16;;;8.32;31.96
25350;BME280;13302;48.796;11.978;2022-12-29T04:44:07;96466.56;;;8.36;32.01
25350;BME280;13302;48.796;11.978;2022-12-29T04:47:11;96474.13;;;8.39;32.02
25350;BME280;13302;48.796;11.978;2022-12-29T04:50:07;96473.78;;;8.41;31.90
25350;BME280;13302;48.796;11.978;2022-12-29T04:53:03;96467.94;;;8.42;31.71
25350;BME280;13302;48.796;11.978;2022-12-29T04:55:52;96466.41;;;8.45;31.84
25350;BME280;13302;48.796;11.978;2022-12-29T04:58:41;96475.50;;;8.45;31.54
25350;BME280;13302;48.796;11.978;2022-12-29T05:01:28;96479.53;;;8.48;31.60
25350;BME280;13302;48.796;11.978;2022-12-29T05:04:15;96484.38;;;8.51;31.79
25350;BME280;13302;48.796;11.978;2022-12-29T05:07:03;96490.34;;;8.53;31.78
25350;BME280;13302;48.796;11.978;2022-12-29T05:09:50;96493.53;;;8.55;31.83
25350;BME280;13302;48.796;11.978;2022-12-29T05:12:38;96498.34;;;8.58;31.71
25350;BME280;13302;48.796;11.978;2022-12-29T05:15:26;96494.78;;;8.57;31.45
25350;BME280;13302;48.796;11.978;2022-12-29T05:18:13;96492.50;;;8.59;31.41
25350;BME280;13302;48.796;11.978;2022-12-29T05:21:00;96491.38;;;8.60;31.56
25350;BME280;13302;48.796;11.978;2022-12-29T05:23:48;96481.91;;;8.61;31.38
25350;BME280;13302;48.796;11.978;2022-12-29T05:26:35;96478.03;;;8.62;31.62
25350;BME280;13302;48.796;11.978;2022-12-29T05:29:30;96480.44;;;8.64;31.33
25350;BME280;13302;48.796;11.978;2022-12-29T05:32:17;96483.19;;;8.64;31.21
25350;BME280;13302;48.796;11.978;2022-12-29T05:35:05;96482.06;;;8.65;31.29
25350;BME280;13302;48.796;11.978;2022-12-29T05:37:53;96484.44;;;8.66;31.72
25350;BME280;13302;48.796;11.978;2022-12-29T05:40:40;96482.50;;;8.67;31.54
25350;BME280;13302;48.796;11.978;2022-12-29T05:43:39;96484.91;;;8.68;31.55
25350;BME280;13302;48.796;11.978;2022-12-29T05:46:34;96482.97;;;8.69;31.35
25350;BME280;13302;48.796;11.978;2022-12-29T05:49:30;96481.78;;;8.70;31.66
25350;BME280;13302;48.796;11.978;2022-12-29T05:52:24;96478.38;;;8.73;31.45
25350;BME280;13302;48.796;11.978;2022-12-29T05:55:12;96470.88;;;8.73;31.56
25350;BME280;13302;48.796;11.978;2022-12-29T05:58:02;96472.03;;;8.72;31.46
25350;BME280;13302;48.796;11.978;2022-12-29T06:00:49;96472.84;;;8.73;31.90
25350;BME280;13302;48.796;11.978;2022-12-29T06:03:36;96474.81;;;8.72;31.73
25350;BME280;13302;48.796;11.978;2022-12-29T06:06:26;96467.34;;;8.73;31.83
25350;BME280;13302;48.796;11.978;2022-12-29T06:09:14;96473.63;;;8.73;31.53
25350;BME280;13302;48.796;11.978;2022-12-29T06:12:02;96469.28;;;8.72;31.37
25350;BME280;13302;48.796;11.978;2022-12-29T06:14:49;96465.34;;;8.73;31.65
25350;BME280;13302;48.796;11.978;2022-12-29T06:17:36;96464.22;;;8.74;31.23
25350;BME280;13302;48.796;11.978;2022-12-29T06:20:23;96476.38;;;8.73;31.50
25350;BME280;13302;48.796;11.978;2022-12-29T06:23:11;96480.75;;;8.74;31.24
25350;BME280;13302;48.796;11.978;2022-12-29T06:26:01;96476.38;;;8.73;31.38
25350;BME280;13302;48.796;11.978;2022-12-29T06:28:48;96470.88;;;8.73;31.19
25350;BME280;13302;48.796;11.978;2022-12-29T06:31:35;96478.38;;;8.73;30.98
25350;BME280;13302;48.796;11.978;2022-12-29T06:34:24;96474.81;;;8.72;31.21
25350;BME280;13302;48.796;11.978;2022-12-29T06:37:11;96485.00;;;8.72;31.20
25350;BME280;13302;48.796;11.978;2022-12-29T06:39:59;96484.53;;;8.70;31.31
25350;BME280;13302;48.796;11.978;2022-12-29T06:42:55;96484.91;;;8.68;31.32
25350;BME280;13302;48.796;11.978;2022-12-29T06:45:56;96489.50;;;8.64;31.04
25350;BME280;13302;48.796;11.978;2022-12-29T06:48:44;96491.81;;;8.62;31.04
25350;BME280;13302;48.796;11.978;2022-12-29T06:51:31;96495.25;;;8.59;31.33
25350;BME280;13302;48.796;11.978;2022-12-29T06:54:18;96488.03;;;8.55;31.13
25350;BME280;13302;48.796;11.978;2022-12-29T06:57:05;96502.84;;;8.50;31.18
25350;BME280;13302;48.796;11.978;2022-12-29T06:59:53;96506.59;;;8.46;31.16
25350;BME280;13302;48.796;11.978;2022-12-29T07:02:42;96513.13;;;8.41;31.44
25350;BME280;13302;48.796;11.978;2022-12-29T07:05:29;96503.16;;;8.37;31.34
25350;BME280;13302;48.796;11.978;2022-12-29T07:08:18;96514.06;;;8.33;31.40
25350;BME280;13302;48.796;11.978;2022-12-29T07:11:05;96517.84;;;8.28;31.34
25350;BME280;13302;48.796;11.978;2022-12-29T07:13:52;96523.72;;;8.27;31.52
25350;BME280;13302;48.796;11.978;2022-12-29T07:16:39;96520.84;;;8.23;31.32
25350;BME280;13302;48.796;11.978;2022-12-29T07:19:26;96521.53;;;8.20;31.67
25350;BME280;13302;48.796;11.978;2022-12-29T07:22:13;96517.50;;;8.18;31.54
25350;BME280;13302;48.796;11.978;2022-12-29T07:25:00;96517.72;;;8.13;31.54
25350;BME280;13302;48.796;11.978;2022-12-29T07:27:47;96519.56;;;8.09;31.39
25350;BME280;13302;48.796;11.978;2022-12-29T07:30:36;96532.09;;;8.06;31.63
25350;BME280;13302;48.796;11.978;2022-12-29T07:33:23;96530.03;;;8.03;31.77
25350;BME280;13302;48.796;11.978;2022-12-29T07:36:11;96527.94;;;8.00;31.69
25350;BME280;13302;48.796;11.978;2022-12-29T07:38:58;96531.03;;;7.99;31.83
25350;BME280;13302;48.796;11.978;2022-12-29T07:41:45;96525.88;;;7.97;31.79
25350;BME280;13302;48.796;11.978;2022-12-29T07:44:37;96521.88;;;7.95;31.79
25350;BME280;13302;48.796;11.978;2022-12-29T07:47:40;96515.44;;;7.91;31.84
25350;BME280;13302;48.796;11.978;2022-12-29T07:50:28;96527.09;;;7.88;31.80
25350;BME280;13302;48.796;11.978;2022-12-29T07:53:15;96522.28;;;7.84;32.04
25350;BME280;13302;48.796;11.978;2022-12-29T07:56:02;96526.53;;;7.82;32.06
25350;BME280;13302;48.796;11.978;2022-12-29T07:58:49;96526.88;;;7.80;32.36
25350;BME280;13302;48.796;11.978;2022-12-29T08:01:36;96523.00;;;7.81;32.10
25350;BME280;13302;48.796;11.978;2022-12-29T08:04:23;96530.75;;;7.79;32.27
25350;BME280;13302;48.796;11.978;2022-12-29T08:07:10;96524.94;;;7.81;32.26
25350;BME280;13302;48.796;11.978;2022-12-29T08:09:57;96526.19;;;7.83;32.55
25350;BME280;13302;48.796;11.978;2022-12-29T08:12:44;96523.91;;;7.86;32.44
25350;BME280;13302;48.796;11.978;2022-12-29T08:15:31;96527.09;;;7.88;32.67
25350;BME280;13302;48.796;11.978;2022-12-29T08:18:18;96528.41;;;7.90;32.86
25350;BME280;13302;48.796;11.978;2022-12-29T08:21:06;96540.66;;;7.93;32.57
25350;BME280;13302;48.796;11.978;2022-12-29T08:23:53;96530.56;;;7.97;32.53
25350;BME280;13302;48.796;11.978;2022-12-29T08:26:40;96526.00;;;8.01;32.72
25350;BME280;13302;48.796;11.978;2022-12-29T08:29:27;96523.81;;;8.06;32.84
25350;BME280;13302;48.796;11.978;2022-12-29T08:32:14;96519.69;;;8.12;32.80
25350;BME280;13302;48.796;11.978;2022-12-29T08:35:02;96520.97;;;8.15;32.66
25350;BME280;13302;48.796;11.978;2022-12-29T08:37:49;96529.34;;;8.18;32.88
25350;BME280;13302;48.796;11.978;2022-12-29T08:40:36;96528.63;;;8.21;32.92
25350;BME280;13302;48.796;11.978;2022-12-29T08:43:24;96535.06;;;8.25;32.81
25350;BME280;13302;48.796;11.978;2022-12-29T08:46:11;96534.38;;;8.28;32.75
25350;BME280;13302;48.796;11.978;2022-12-29T08:48:58;96537.25;;;8.32;33.00
25350;BME280;13302;48.796;11.978;2022-12-29T08:51:45;96530.59;;;8.33;32.94
25350;BME280;13302;48.796;11.978;2022-12-29T08:54:32;96535.44;;;8.36;33.07
25350;BME280;13302;48.796;11.978;2022-12-29T08:57:19;96535.53;;;8.40;33.10
25350;BME280;13302;48.796;11.978;2022-12-29T09:00:21;96537.25;;;8.44;33.48
25350;BME280;13302;48.796;11.978;2022-12-29T09:03:08;96535.44;;;8.48;33.45
25350;BME280;13302;48.796;11.978;2022-12-29T09:05:56;96536.38;;;8.52;33.24
25350;BME280;13302;48.796;11.978;2022-12-29T09:08:44;96544.75;;;8.56;33.35
25350;BME280;13302;48.796;11.978;2022-12-29T09:11:31;96544.84;;;8.59;33.10
25350;BME280;13302;48.796;11.978;2022-12-29T09:14:18;96543.81;;;8.64;33.14
25350;BME280;13302;48.796;11.978;2022-12-29T09:17:05;96542.31;;;8.66;33.33
25350;BME280;13302;48.796;11.978;2022-12-29T09:20:13;96551.06;;;8.68;33.39
25350;BME280;13302;48.796;11.978;2022-12-29T09:23:01;96547.59;;;8.71;33.64
25350;BME280;13302;48.796;11.978;2022-12-29T09:25:48;96547.69;;;8.75;33.74
25350;BME280;13302;48.796;11.978;2022-12-29T09:28:35;96543.91;;;8.80;33.61
25350;BME280;13302;48.796;11.978;2022-12-29T09:31:23;96549.53;;;8.83;33.70
25350;BME280;13302;48.796;11.978;2022-12-29T09:34:11;96547.34;;;8.89;33.57
25350;BME280;13302;48.796;11.978;2022-12-29T09:36:58;96536.41;;;8.92;33.38
25350;BME280;13302;48.796;11.978;2022-12-29T09:39:45;96547.53;;;8.96;33.40
25350;BME280;13302;48.796;11.978;2022-12-29T09:43:07;96545.25;;;8.98;33.32
25350;BME280;13302;48.796;11.978;2022-12-29T09:52:14;96541.41;;;9.14;33.21
25350;BME280;13302;48.796;11.978;2022-12-29T09:58:02;96533.44;;;9.25;33.04
25350;BME280;13302;48.796;11.978;2022-12-29T10:00:58;96528.84;;;9.29;33.17
25350;BME280;13302;48.796;11.978;2022-12-29T10:03:50;96528.22;;;9.36;32.70
25350;BME280;13302;48.796;11.978;2022-12-29T10:06:42;96529.50;;;9.38;32.94
25350;BME280;13302;48.796;11.978;2022-12-29T10:16:08;96515.97;;;9.49;32.57
25350;BME280;13302;48.796;11.978;2022-12-29T10:19:21;96514.59;;;9.55;32.71
25350;BME280;13302;48.796;11.978;2022-12-29T10:25:19;96516.75;;;9.61;32.94
25350;BME280;13302;48.796;11.978;2022-12-29T10:28:23;96511.34;;;9.65;32.86
25350;BME280;13302;48.796;11.978;2022-12-29T10:31:17;96500.38;;;9.68;32.61
25350;BME280;13302;48.796;11.978;2022-12-29T10:34:35;96513.13;;;9.73;32.62
25350;BME280;13302;48.796;11.978;2022-12-29T10:37:40;96504.59;;;9.78;32.66
25350;BME280;13302;48.796;11.978;2022-12-29T10:40:36;96493.63;;;9.82;32.64
25350;BME280;13302;48.796;11.978;2022-12-29T10:43:30;96486.25;;;9.86;32.68
25350;BME280;13302;48.796;11.978;2022-12-29T10:46:23;96491.84;;;9.89;32.61
25350;BME280;13302;48.796;11.978;2022-12-29T10:49:17;96492.31;;;9.91;32.79
25350;BME280;13302;48.796;11.978;2022-12-29T10:52:11;96489.28;;;9.96;32.61
25350;BME280;13302;48.796;11.978;2022-12-29T10:55:12;96486.63;;;10.00;32.97
25350;BME280;13302;48.796;11.978;2022-12-29T10:58:03;96478.03;;;10.05;32.77
25350;BME280;13302;48.796;11.978;2022-12-29T11:00:53;96471.09;;;10.11;33.13
25350;BME280;13302;48.796;11.978;2022-12-29T11:03:48;96471.19;;;10.14;33.10
25350;BME280;13302;48.796;11.978;2022-12-29T11:06:37;96472.97;;;10.23;33.26
25350;BME280;13302;48.796;11.978;2022-12-29T11:09:28;96457.34;;;10.30;33.09
25350;BME280;13302;48.796;11.978;2022-12-29T11:12:30;96463.16;;;10.41;33.07
25350;BME280;13302;48.796;11.978;2022-12-29T11:15:17;96464.53;;;10.50;33.30
25350;BME280;13302;48.796;11.978;2022-12-29T11:18:04;96457.69;;;10.60;33.18
25350;BME280;13302;48.796;11.978;2022-12-29T11:20:57;96452.84;;;10.73;33.04
25350;BME280;13302;48.796;11.978;2022-12-29T11:23:56;96465.28;;;10.82;32.77
25350;BME280;13302;48.796;11.978;2022-12-29T11:26:44;96465.16;;;10.94;32.95
25350;BME280;13302;48.796;11.978;2022-12-29T11:29:38;96459.41;;;11.03;32.54
25350;BME280;13302;48.796;11.978;2022-12-29T11:32:28;96461.97;;;11.12;32.77
25350;BME280;13302;48.796;11.978;2022-12-29T11:35:36;96456.13;;;11.17;32.81
25350;BME280;13302;48.796;11.978;2022-12-29T11:38:34;96465.00;;;11.26;32.86
25350;BME280;13302;48.796;11.978;2022-12-29T11:41:26;96466.38;;;11.35;32.47
25350;BME280;13302;48.796;11.978;2022-12-29T11:44:14;96463.75;;;11.42;32.63
25350;BME280;13302;48.796;11.978;2022-12-29T11:47:01;96459.63;;;11.52;32.47
25350;BME280;13302;48.796;11.978;2022-12-29T11:49:50;96460.56;;;11.60;32.34
25350;BME280;13302;48.796;11.978;2022-12-29T11:52:39;96452.00;;;11.68;32.31
25350;BME280;13302;48.796;11.978;2022-12-29T11:55:27;96456.88;;;11.75;31.98
25350;BME280;13302;48.796;11.978;2022-12-29T11:58:15;96453.44;;;11.81;31.87
25350;BME280;13302;48.796;11.978;2022-12-29T12:01:27;96442.84;;;11.87;31.83
25350;BME280;13302;48.796;11.978;2022-12-29T12:04:18;96436.63;;;11.93;31.85
25350;BME280;13302;48.796;11.978;2022-12-29T12:07:18;96433.59;;;12.02;31.79
25350;BME280;13302;48.796;11.978;2022-12-29T12:10:23;96427.38;;;12.09;31.80
25350;BME280;13302;48.796;11.978;2022-12-29T12:13:22;96425.50;;;12.16;31.60
25350;BME280;13302;48.796;11.978;2022-12-29T12:16:41;96432.34;;;12.22;31.88
25350;BME280;13302;48.796;11.978;2022-12-29T12:19:34;96433.25;;;12.30;31.62
25350;BME280;13302;48.796;11.978;2022-12-29T12:22:35;96420.31;;;12.37;31.49
25350;BME280;13302;48.796;11.978;2022-12-29T12:25:30;96420.88;;;12.47;31.54
25350;BME280;13302;48.796;11.978;2022-12-29T12:28:26;96416.28;;;12.58;31.19
25350;BME280;13302;48.796;11.978;2022-12-29T12:31:44;96407.63;;;12.63;31.25
25350;BME280;13302;48.796;11.978;2022-12-29T12:34:37;96409.69;;;12.69;31.28
25350;BME280;13302;48.796;11.978;2022-12-29T12:41:23;96411.38;;;12.77;30.98
25350;BME280;13302;48.796;11.978;2022-12-29T12:50:35;96409.41;;;12.78;30.69
25350;BME280;13302;48.796;11.978;2022-12-29T12:53:33;96407.81;;;12.77;30.73
25350;BME280;13302;48.796;11.978;2022-12-29T12:56:53;96412.13;;;12.74;31.10
25350;BME280;13302;48.796;11.978;2022-12-29T13:00:02;96401.41;;;12.73;30.98
25350;BME280;13302;48.796;11.978;2022-12-29T13:03:17;96412.06;;;12.67;30.63
25350;BME280;13302;48.796;11.978;2022-12-29T13:06:26;96412.81;;;12.68;31.15
25350;BME280;13302;48.796;11.978;2022-12-29T13:12:34;96402.44;;;12.61;31.17
25350;BME280;13302;48.796;11.978;2022-12-29T13:18:59;96394.00;;;12.51;31.17
25350;BME280;13302;48.796;11.978;2022-12-29T13:28:00;96399.84;;;12.46;31.23
25350;BME280;13302;48.796;11.978;2022-12-29T13:36:53;96417.91;;;12.36;31.37
25350;BME280;13302;48.796;11.978;2022-12-29T13:39:47;96419.06;;;12.35;31.65
25350;BME280;13302;48.796;11.978;2022-12-29T13:42:36;96415.13;;;12.36;31.65
25350;BME280;13302;48.796;11.978;2022-12-29T13:45:24;96409.16;;;12.34;31.75
25350;BME280;13302;48.796;11.978;2022-12-29T13:48:17;96420.63;;;12.32;31.49
25350;BME280;13302;48.796;11.978;2022-12-29T13:51:08;96420.63;;;12.32;31.83
25350;BME280;13302;48.796;11.978;2022-12-29T13:57:46;96415.38;;;12.27;31.65
25350;BME280;13302;48.796;11.978;2022-12-29T14:00:46;96413.00;;;12.26;31.82
25350;BME280;13302;48.796;11.978;2022-12-29T14:03:52;96419.72;;;12.25;31.43
25350;BME280;13302;48.796;11.978;2022-12-29T14:06:41;96427.66;;;12.26;32.00
25350;BME280;13302;48.796;11.978;2022-12-29T14:09:49;96425.63;;;12.23;31.64
25350;BME280;13302;48.796;11.978;2022-12-29T14:12:42;96431.97;;;12.24;31.76
25350;BME280;13302;48.796;11.978;2022-12-29T14:15:30;96425.63;;;12.23;31.65
25350;BME280;13302;48.796;11.978;2022-12-29T14:18:22;96427.19;;;12.21;31.72
25350;BME280;13302;48.796;11.978;2022-12-29T14:24:27;96427.97;;;12.21;31.88
25350;BME280;13302;48.796;11.978;2022-12-29T14:30:01;96419.66;;;12.21;31.75
25350;BME280;13302;48.796;11.978;2022-12-29T14:33:01;96422.78;;;12.20;31.89
25350;BME280;13302;48.796;11.978;2022-12-29T14:35:49;96419.66;;;12.21;31.68
25350;BME280;13302;48.796;11.978;2022-12-29T14:38:44;96426.38;;;12.20;31.83
25350;BME280;13302;48.796;11.978;2022-12-29T14:41:38;96426.38;;;12.20;31.70
25350;BME280;13302;48.796;11.978;2022-12-29T14:44:26;96435.50;;;12.21;31.94
25350;BME280;13302;48.796;11.978;2022-12-29T14:47:24;96431.50;;;12.18;31.72
25350;BME280;13302;48.796;11.978;2022-12-29T14:50:21;96429.50;;;12.19;32.05
25350;BME280;13302;48.796;11.978;2022-12-29T14:53:48;96446.88;;;12.16;31.95
25350;BME280;13302;48.796;11.978;2022-12-29T14:56:39;96448.84;;;12.15;32.16
25350;BME280;13302;48.796;11.978;2022-12-29T14:59:27;96454.03;;;12.17;32.16
25350;BME280;13302;48.796;11.978;2022-12-29T15:02:20;96452.88;;;12.18;32.09
25350;BME280;13302;48.796;11.978;2022-12-29T15:05:29;96443.75;;;12.17;32.20
25350;BME280;13302;48.796;11.978;2022-12-29T15:08:26;96444.56;;;12.18;31.94
25350;BME280;13302;48.796;11.978;2022-12-29T15:17:34;96439.38;;;12.16;32.07
25350;BME280;13302;48.796;11.978;2022-12-29T15:20:29;96444.09;;;12.16;31.95
25350;BME280;13302;48.796;11.978;2022-12-29T15:23:17;96434.63;;;12.17;32.20
25350;BME280;13302;48.796;11.978;2022-12-29T15:26:06;96450.44;;;12.16;32.29
25350;BME280;13302;48.796;11.978;2022-12-29T15:28:53;96445.72;;;12.17;31.99
25350;BME280;13302;48.796;11.978;2022-12-29T15:31:47;96448.47;;;12.17;32.30
25350;BME280;13302;48.796;11.978;2022-12-29T15:34:35;96446.53;;;12.17;32.37
25350;BME280;13302;48.796;11.978;2022-12-29T15:37:25;96446.88;;;12.16;32.04
25350;BME280;13302;48.796;11.978;2022-12-29T15:40:23;96463.50;;;12.16;32.25
25350;BME280;13302;48.796;11.978;2022-12-29T15:46:32;96456.44;;;12.18;32.42
25350;BME280;13302;48.796;11.978;2022-12-29T15:49:20;96460.78;;;12.19;32.30
25350;BME280;13302;48.796;11.978;2022-12-29T15:52:10;96456.06;;;12.20;32.25
25350;BME280;13302;48.796;11.978;2022-12-29T15:54:58;96457.59;;;12.17;32.50
25350;BME280;13302;48.796;11.978;2022-12-29T15:57:45;96450.09;;;12.18;32.55
25350;BME280;13302;48.796;11.978;2022-12-29T16:00:35;96452.06;;;12.17;32.36
25350;BME280;13302;48.796;11.978;2022-12-29T16:03:32;96460.38;;;12.17;32.39
25350;BME280;13302;48.796;11.978;2022-12-29T16:06:36;96461.19;;;12.18;32.33
25350;BME280;13302;48.796;11.978;2022-12-29T16:09:42;96460.38;;;12.17;32.18
25350;BME280;13302;48.796;11.978;2022-12-29T16:12:32;96466.34;;;12.19;32.15
25350;BME280;13302;48.796;11.978;2022-12-29T16:15:20;96459.63;;;12.20;32.48
25350;BME280;13302;48.796;11.978;2022-12-29T16:18:23;96463.19;;;12.21;32.16
25350;BME280;13302;48.796;11.978;2022-12-29T16:21:17;96467.56;;;12.22;32.35
25350;BME280;13302;48.796;11.978;2022-12-29T16:24:11;96460.06;;;12.22;32.24
25350;BME280;13302;48.796;11.978;2022-12-29T16:27:09;96470.75;;;12.24;32.32
25350;BME280;13302;48.796;11.978;2022-12-29T16:30:05;96463.63;;;12.23;32.54
25350;BME280;13302;48.796;11.978;2022-12-29T16:32:55;96455.31;;;12.23;32.20
25350;BME280;13302;48.796;11.978;2022-12-29T16:38:32;96465.63;;;12.22;32.14
25350;BME280;13302;48.796;11.978;2022-12-29T16:41:30;96471.16;;;12.22;32.35